createdAt,value
2018-05-25T00:01:16.502Z,17.7
2018-05-25T00:02:38.286Z,17.59
2018-05-25T00:04:00.380Z,17.56
2018-05-25T00:05:22.488Z,17.66
2018-05-25T00:06:44.277Z,17.63
2018-05-25T00:08:06.318Z,17.54
2018-05-25T00:09:28.099Z,17.43
2018-05-25T00:10:50.158Z,17.49
2018-05-25T00:12:12.197Z,17.49
2018-05-25T00:13:34.245Z,17.46
2018-05-25T00:14:56.300Z,17.54
2018-05-25T00:16:18.359Z,17.37
2018-05-25T00:17:40.402Z,17.33
2018-05-25T00:19:02.456Z,17.33
2018-05-25T00:20:23.993Z,17.34
2018-05-25T00:21:45.518Z,17.37
2018-05-25T00:23:07.579Z,17.3
2018-05-25T00:24:28.847Z,17.26
2018-05-25T00:25:50.887Z,17.16
2018-05-25T00:27:12.936Z,17.07
2018-05-25T00:28:34.711Z,17.08
2018-05-25T00:29:56.760Z,17.03
2018-05-25T00:31:18.822Z,17.03
2018-05-25T00:32:40.605Z,17.01
2018-05-25T00:34:02.374Z,16.96
2018-05-25T00:35:24.169Z,16.98
2018-05-25T00:36:45.976Z,16.97
2018-05-25T00:38:08.035Z,16.96
2018-05-25T00:39:30.088Z,16.98
2018-05-25T00:40:52.135Z,16.96
2018-05-25T00:42:14.193Z,16.98
2018-05-25T00:43:35.964Z,16.88
2018-05-25T00:44:57.736Z,16.94
2018-05-25T00:46:19.773Z,16.85
2018-05-25T00:47:41.558Z,16.86
2018-05-25T00:49:03.604Z,16.81
2018-05-25T00:50:25.478Z,16.76
2018-05-25T00:51:47.552Z,16.79
2018-05-25T00:53:09.330Z,16.66
2018-05-25T00:54:31.389Z,16.66
2018-05-25T00:55:53.163Z,16.73
2018-05-25T00:57:15.213Z,16.66
2018-05-25T00:58:37.019Z,16.66
2018-05-25T00:59:59.047Z,16.63
2018-05-25T01:01:21.103Z,16.67
2018-05-25T01:02:42.656Z,16.7
2018-05-25T01:04:06.351Z,16.56
2018-05-25T01:05:28.140Z,16.45
2018-05-25T01:06:49.906Z,16.53
2018-05-25T01:08:11.684Z,16.45
2018-05-25T01:09:33.734Z,16.45
2018-05-25T01:10:55.529Z,16.49
2018-05-25T01:12:17.573Z,16.5
2018-05-25T01:13:39.361Z,16.46
2018-05-25T01:15:01.148Z,16.33
2018-05-25T01:16:23.203Z,16.46
2018-05-25T01:17:45.260Z,16.31
2018-05-25T01:19:07.042Z,16.33
2018-05-25T01:20:29.092Z,16.21
2018-05-25T01:21:51.138Z,16.24
2018-05-25T01:23:13.205Z,16.23
2018-05-25T01:24:35.258Z,16.15
2018-05-25T01:25:57.025Z,16.17
2018-05-25T01:27:19.079Z,16.2
2018-05-25T01:28:40.873Z,16.11
2018-05-25T01:30:02.936Z,16.09
2018-05-25T01:31:24.708Z,16.04
2018-05-25T01:32:46.745Z,16.04
2018-05-25T01:34:08.788Z,15.92
2018-05-25T01:35:30.571Z,16.02
2018-05-25T01:36:52.610Z,16.02
2018-05-25T01:38:14.634Z,15.94
2018-05-25T01:39:36.411Z,16
2018-05-25T01:40:58.182Z,16
2018-05-25T01:42:19.701Z,15.84
2018-05-25T01:43:41.757Z,15.86
2018-05-25T01:45:03.796Z,15.89
2018-05-25T01:46:25.569Z,15.87
2018-05-25T01:47:47.353Z,15.84
2018-05-25T01:49:08.881Z,15.89
2018-05-25T01:50:30.918Z,15.8
2018-05-25T01:51:52.948Z,15.8
2018-05-25T01:53:14.993Z,15.89
2018-05-25T01:54:37.047Z,15.86
2018-05-25T01:55:58.854Z,15.75
2018-05-25T01:57:20.371Z,15.76
2018-05-25T01:58:42.388Z,15.8
2018-05-25T02:00:04.432Z,15.78
2018-05-25T02:01:26.223Z,15.75
2018-05-25T02:02:48.274Z,15.84
2018-05-25T02:04:10.066Z,15.69
2018-05-25T02:05:32.127Z,15.76
2018-05-25T02:06:53.914Z,15.69
2018-05-25T02:08:15.694Z,15.69
2018-05-25T02:09:37.223Z,15.65
2018-05-25T02:10:59.263Z,15.67
2018-05-25T02:12:21.110Z,15.68
2018-05-25T02:13:43.160Z,15.51
2018-05-25T02:15:05.260Z,15.57
2018-05-25T02:16:27.046Z,15.56
2018-05-25T02:17:48.845Z,15.54
2018-05-25T02:19:10.885Z,15.46
2018-05-25T02:20:32.661Z,15.49
2018-05-25T02:21:54.693Z,15.39
2018-05-25T02:23:16.749Z,15.29
2018-05-25T02:24:38.772Z,15.36
2018-05-25T02:26:00.818Z,15.25
2018-05-25T02:27:22.601Z,15.34
2018-05-25T02:28:44.646Z,15.17
2018-05-25T02:30:06.685Z,15.16
2018-05-25T02:31:28.473Z,15.14
2018-05-25T02:32:50.526Z,15.13
2018-05-25T02:34:12.044Z,15.14
2018-05-25T02:35:34.095Z,15.1
2018-05-25T02:36:56.135Z,15.13
2018-05-25T02:38:18.182Z,15.2
2018-05-25T02:39:40.278Z,15.17
2018-05-25T02:41:02.055Z,15.14
2018-05-25T02:42:23.837Z,15.07
2018-05-25T02:43:45.870Z,15.1
2018-05-25T02:45:07.922Z,15.06
2018-05-25T02:46:29.712Z,15.01
2018-05-25T02:47:51.523Z,14.99
2018-05-25T02:49:13.554Z,15.03
2018-05-25T02:50:35.094Z,15.01
2018-05-25T02:51:57.143Z,14.96
2018-05-25T02:53:19.194Z,15.1
2018-05-25T02:54:41.263Z,15.07
2018-05-25T02:56:03.328Z,14.95
2018-05-25T02:57:25.167Z,15.01
2018-05-25T02:58:47.228Z,14.99
2018-05-25T03:00:09.259Z,15.01
2018-05-25T03:01:31.312Z,14.96
2018-05-25T03:02:52.824Z,14.98
2018-05-25T03:04:14.891Z,14.98
2018-05-25T03:05:36.963Z,14.94
2018-05-25T03:06:59.020Z,15.07
2018-05-25T03:08:21.065Z,15.1
2018-05-25T03:09:42.855Z,14.98
2018-05-25T03:11:04.916Z,14.99
2018-05-25T03:12:26.969Z,14.99
2018-05-25T03:13:48.758Z,14.99
2018-05-25T03:15:10.539Z,15.02
2018-05-25T03:16:32.583Z,14.96
2018-05-25T03:17:54.624Z,14.99
2018-05-25T03:19:16.667Z,14.99
2018-05-25T03:20:38.455Z,15.06
2018-05-25T03:22:00.474Z,15.02
2018-05-25T03:23:22.521Z,15.03
2018-05-25T03:24:44.065Z,15.03
2018-05-25T03:26:06.201Z,14.99
2018-05-25T03:27:28.342Z,15.03
2018-05-25T03:28:50.099Z,14.99
2018-05-25T03:30:11.882Z,15.09
2018-05-25T03:31:33.942Z,15.11
2018-05-25T03:32:55.980Z,15.17
2018-05-25T03:34:18.035Z,15.17
2018-05-25T03:35:40.072Z,15.16
2018-05-25T03:37:02.135Z,15.21
2018-05-25T03:38:24.168Z,15.19
2018-05-25T03:39:46.210Z,15.29
2018-05-25T03:41:08.247Z,15.19
2018-05-25T03:42:30.297Z,15.28
2018-05-25T03:43:52.324Z,15.31
2018-05-25T03:45:13.849Z,15.28
2018-05-25T03:46:35.361Z,15.34
2018-05-25T03:47:57.410Z,15.34
2018-05-25T03:49:19.194Z,15.35
2018-05-25T03:50:41.225Z,15.41
2018-05-25T03:52:03.022Z,15.39
2018-05-25T03:53:24.807Z,15.47
2018-05-25T03:54:46.565Z,15.44
2018-05-25T03:56:08.352Z,15.41
2018-05-25T03:57:30.386Z,15.51
2018-05-25T03:58:52.167Z,15.51
2018-05-25T04:00:14.223Z,15.47
2018-05-25T04:01:36.049Z,15.49
2018-05-25T04:02:58.250Z,15.6
2018-05-25T04:04:20.297Z,15.54
2018-05-25T04:05:42.350Z,15.56
2018-05-25T04:07:04.127Z,15.64
2018-05-25T04:08:25.927Z,15.65
2018-05-25T04:09:47.974Z,15.68
2018-05-25T04:11:09.763Z,15.67
2018-05-25T04:12:31.838Z,15.69
2018-05-25T04:13:53.611Z,15.62
2018-05-25T04:15:15.658Z,15.71
2018-05-25T04:16:37.704Z,15.75
2018-05-25T04:17:59.472Z,15.78
2018-05-25T04:19:21.250Z,15.75
2018-05-25T04:20:43.019Z,15.82
2018-05-25T04:22:04.810Z,15.84
2018-05-25T04:23:26.853Z,15.83
2018-05-25T04:24:48.911Z,15.96
2018-05-25T04:26:10.956Z,15.97
2018-05-25T04:27:32.987Z,16.11
2018-05-25T04:28:54.764Z,16.05
2018-05-25T04:30:16.548Z,16.08
2018-05-25T04:31:37.825Z,16.14
2018-05-25T04:32:59.604Z,16.23
2018-05-25T04:34:21.440Z,16.27
2018-05-25T04:35:43.627Z,16.33
2018-05-25T04:37:05.409Z,16.38
2018-05-25T04:38:27.188Z,16.39
2018-05-25T04:39:48.978Z,16.43
2018-05-25T04:41:11.059Z,16.52
2018-05-25T04:42:32.592Z,16.53
2018-05-25T04:43:54.610Z,16.63
2018-05-25T04:45:16.664Z,16.68
2018-05-25T04:46:38.764Z,16.71
2018-05-25T04:48:00.819Z,16.79
2018-05-25T04:49:22.870Z,16.93
2018-05-25T04:50:44.403Z,16.91
2018-05-25T04:52:06.457Z,16.98
2018-05-25T04:53:28.500Z,17.14
2018-05-25T04:54:50.293Z,17.44
2018-05-25T04:56:12.082Z,18.2
2018-05-25T04:57:34.125Z,19.71
2018-05-25T04:58:56.307Z,21.47
2018-05-25T05:00:18.105Z,22.79
2018-05-25T05:01:39.916Z,23.13
2018-05-25T05:03:01.974Z,23.85
2018-05-25T05:04:24.029Z,24.47
2018-05-25T05:05:46.089Z,25.33
2018-05-25T05:07:08.145Z,25.25
2018-05-25T05:08:30.198Z,25.13
2018-05-25T05:09:52.251Z,25.38
2018-05-25T05:11:14.306Z,26.1
2018-05-25T05:12:36.352Z,26.17
2018-05-25T05:13:58.156Z,26.57
2018-05-25T05:15:20.194Z,26.67
2018-05-25T05:16:42.255Z,27.24
2018-05-25T05:18:04.319Z,27.7
2018-05-25T05:19:25.859Z,28.03
2018-05-25T05:20:47.660Z,28.48
2018-05-25T05:22:09.718Z,28.3
2018-05-25T05:23:31.791Z,28
2018-05-25T05:24:53.592Z,28.37
2018-05-25T05:26:15.706Z,29.14
2018-05-25T05:27:37.810Z,29.41
2018-05-25T05:28:59.615Z,29.28
2018-05-25T05:30:21.415Z,29.16
2018-05-25T05:31:42.952Z,28.96
2018-05-25T05:33:04.998Z,28.44
2018-05-25T05:34:27.043Z,28.46
2018-05-25T05:35:48.860Z,28.54
2018-05-25T05:37:10.396Z,28.89
2018-05-25T05:38:31.935Z,29.57
2018-05-25T05:39:53.734Z,29.48
2018-05-25T05:41:15.524Z,29.78
2018-05-25T05:42:37.625Z,30.27
2018-05-25T05:43:59.667Z,31.07
2018-05-25T05:45:21.726Z,31.02
2018-05-25T05:46:43.805Z,30.67
2018-05-25T05:48:05.864Z,31.29
2018-05-25T05:49:27.935Z,32.4
2018-05-25T05:50:50.031Z,32.21
2018-05-25T05:52:11.970Z,31.1
2018-05-25T05:53:33.776Z,31.38
2018-05-25T05:54:55.841Z,31.84
2018-05-25T05:56:17.658Z,32.03
2018-05-25T05:57:39.195Z,32.44
2018-05-25T05:59:01.280Z,32.4
2018-05-25T06:00:23.325Z,32.93
2018-05-25T06:01:45.362Z,32.93
2018-05-25T06:03:07.440Z,32.23
2018-05-25T06:04:29.319Z,32.78
2018-05-25T06:05:51.369Z,32.6
2018-05-25T06:07:13.432Z,32.37
2018-05-25T06:08:35.491Z,31.53
2018-05-25T06:09:57.273Z,31.16
2018-05-25T06:11:19.087Z,30.91
2018-05-25T06:12:40.919Z,31.14
2018-05-25T06:14:02.983Z,31.34
2018-05-25T06:15:25.044Z,31.44
2018-05-25T06:16:46.826Z,30.97
2018-05-25T06:18:08.610Z,31.36
2018-05-25T06:19:30.661Z,31.91
2018-05-25T06:20:52.723Z,31.14
2018-05-25T06:22:14.773Z,31.5
2018-05-25T06:23:36.927Z,31.75
2018-05-25T06:24:59.017Z,31.92
2018-05-25T06:26:20.818Z,32.85
2018-05-25T06:27:42.887Z,32.84
2018-05-25T06:29:04.958Z,33.34
2018-05-25T06:30:26.770Z,33.91
2018-05-25T06:31:48.848Z,34.02
2018-05-25T06:33:10.659Z,34.03
2018-05-25T06:34:32.439Z,34.32
2018-05-25T06:35:54.552Z,33.95
2018-05-25T06:37:16.645Z,33
2018-05-25T06:38:38.701Z,32.14
2018-05-25T06:40:00.769Z,32.18
2018-05-25T06:41:22.573Z,32.92
2018-05-25T06:42:44.391Z,32.5
2018-05-25T06:44:06.477Z,32.59
2018-05-25T06:45:28.582Z,33.37
2018-05-25T06:46:49.854Z,33.31
2018-05-25T06:48:11.928Z,33.87
2018-05-25T06:49:33.988Z,34.37
2018-05-25T06:50:56.113Z,35.15
2018-05-25T06:52:18.190Z,34.39
2018-05-25T06:53:39.990Z,33.93
2018-05-25T06:55:01.774Z,34.28
2018-05-25T06:56:23.856Z,35.15
2018-05-25T06:57:45.413Z,35.74
2018-05-25T06:59:07.608Z,35.28
2018-05-25T07:00:29.664Z,35.16
2018-05-25T07:01:51.732Z,35.28
2018-05-25T07:03:13.801Z,35.21
2018-05-25T07:04:35.899Z,34.91
2018-05-25T07:05:59.588Z,34.8
2018-05-25T07:07:21.131Z,34.34
2018-05-25T07:08:42.666Z,34.82
2018-05-25T07:10:04.453Z,35.31
2018-05-25T07:11:26.270Z,35.16
2018-05-25T07:12:48.324Z,34.87
2018-05-25T07:14:10.145Z,33.47
2018-05-25T07:15:31.947Z,33.29
2018-05-25T07:16:54.004Z,33.68
2018-05-25T07:18:15.946Z,33.73
2018-05-25T07:19:38.013Z,33.41
2018-05-25T07:21:00.092Z,32.94
2018-05-25T07:22:22.207Z,33.49
2018-05-25T07:23:44.004Z,33.47
2018-05-25T07:25:06.074Z,33.72
2018-05-25T07:26:27.881Z,33.91
2018-05-25T07:27:49.952Z,34.19
2018-05-25T07:29:12.019Z,33.54
2018-05-25T07:30:34.072Z,32.29
2018-05-25T07:31:56.119Z,32.32
2018-05-25T07:33:17.982Z,32.07
2018-05-25T07:34:39.860Z,32.52
2018-05-25T07:36:01.662Z,33.53
2018-05-25T07:37:23.219Z,34.12
2018-05-25T07:38:45.273Z,34.15
2018-05-25T07:40:07.335Z,33.82
2018-05-25T07:41:28.950Z,33.18
2018-05-25T07:42:51.030Z,33.21
2018-05-25T07:44:13.113Z,32.72
2018-05-25T07:45:34.903Z,32.48
2018-05-25T07:46:57.003Z,32.03
2018-05-25T07:48:19.107Z,32.44
2018-05-25T07:49:41.181Z,32.57
2018-05-25T07:51:03.244Z,32.35
2018-05-25T07:52:25.048Z,32.52
2018-05-25T07:53:47.088Z,32.85
2018-05-25T07:55:09.151Z,33.73
2018-05-25T07:56:31.206Z,33.51
2018-05-25T07:57:53.015Z,33.61
2018-05-25T07:59:15.061Z,33.09
2018-05-25T08:00:37.132Z,32.5
2018-05-25T08:01:58.952Z,32.55
2018-05-25T08:03:21.042Z,32.03
2018-05-25T08:04:43.114Z,31.92
2018-05-25T08:06:04.659Z,32.45
2018-05-25T08:07:26.740Z,32.82
2018-05-25T08:08:48.542Z,32.03
2018-05-25T08:10:10.593Z,31.2
2018-05-25T08:11:32.392Z,30.84
2018-05-25T08:12:54.455Z,29.83
2018-05-25T08:14:15.984Z,28.73
2018-05-25T08:15:38.046Z,27.7
2018-05-25T08:17:00.110Z,27.21
2018-05-25T08:18:21.635Z,26.94
2018-05-25T08:19:43.170Z,26.4
2018-05-25T08:21:05.239Z,25.82
2018-05-25T08:22:27.292Z,25.55
2018-05-25T08:23:49.072Z,25.52
2018-05-25T08:25:10.861Z,25.62
2018-05-25T08:26:32.917Z,25.77
2018-05-25T08:27:54.975Z,25.75
2018-05-25T08:29:16.766Z,25.54
2018-05-25T08:30:38.810Z,25.51
2018-05-25T08:32:00.888Z,25.52
2018-05-25T08:33:22.936Z,25.5
2018-05-25T08:34:44.973Z,25.5
2018-05-25T08:36:06.782Z,25.57
2018-05-25T08:37:28.303Z,25.69
2018-05-25T08:38:50.343Z,25.7
2018-05-25T08:40:12.402Z,25.9
2018-05-25T08:41:34.204Z,25.9
2018-05-25T08:42:56.258Z,25.92
2018-05-25T08:44:18.299Z,25.6
2018-05-25T08:45:40.068Z,25.39
2018-05-25T08:47:01.857Z,25.57
2018-05-25T08:48:23.935Z,25.62
2018-05-25T08:49:45.195Z,25.72
2018-05-25T08:51:07.250Z,25.64
2018-05-25T08:52:29.026Z,25.73
2018-05-25T08:53:50.822Z,25.73
2018-05-25T08:55:13.029Z,25.82
2018-05-25T08:56:35.110Z,25.9
2018-05-25T08:57:57.162Z,25.76
2018-05-25T08:59:18.693Z,25.76
2018-05-25T09:00:40.756Z,25.82
2018-05-25T09:02:02.806Z,25.92
2018-05-25T09:03:24.858Z,25.99
2018-05-25T09:04:46.632Z,26.25
2018-05-25T09:06:08.431Z,26.36
2018-05-25T09:07:30.215Z,26.51
2018-05-25T09:08:52.141Z,26.52
2018-05-25T09:10:14.199Z,26.67
2018-05-25T09:11:36.311Z,26.82
2018-05-25T09:12:57.869Z,26.84
2018-05-25T09:14:19.924Z,26.8
2018-05-25T09:15:41.949Z,26.69
2018-05-25T09:17:03.999Z,26.4
2018-05-25T09:18:26.047Z,26.26
2018-05-25T09:19:48.116Z,26.01
2018-05-25T09:21:10.203Z,25.97
2018-05-25T09:22:31.719Z,25.97
2018-05-25T09:23:53.789Z,25.99
2018-05-25T09:25:15.865Z,26.09
2018-05-25T09:26:37.920Z,26.5
2018-05-25T09:27:59.452Z,26.4
2018-05-25T09:29:21.549Z,26.58
2018-05-25T09:30:43.603Z,26.65
2018-05-25T09:32:05.722Z,26.67
2018-05-25T09:33:27.246Z,26.84
2018-05-25T09:34:49.301Z,26.85
2018-05-25T09:36:10.830Z,26.88
2018-05-25T09:37:32.727Z,27.09
2018-05-25T09:38:54.791Z,27
2018-05-25T09:40:16.588Z,26.81
2018-05-25T09:41:38.656Z,26.62
2018-05-25T09:43:00.451Z,26.55
2018-05-25T09:44:22.497Z,26.63
2018-05-25T09:45:44.312Z,26.8
2018-05-25T09:47:06.363Z,27.1
2018-05-25T09:48:28.173Z,27.21
2018-05-25T09:49:50.242Z,27.28
2018-05-25T09:51:12.291Z,27.13
2018-05-25T09:52:34.353Z,27.19
2018-05-25T09:53:56.143Z,27.22
2018-05-25T09:55:18.203Z,27.14
2018-05-25T09:56:39.719Z,27.12
2018-05-25T09:58:01.508Z,27.03
2018-05-25T09:59:23.317Z,26.99
2018-05-25T10:00:45.381Z,26.66
2018-05-25T10:02:07.450Z,26.47
2018-05-25T10:03:29.234Z,26.48
2018-05-25T10:04:51.287Z,26.5
2018-05-25T10:06:13.082Z,26.4
2018-05-25T10:07:34.853Z,26.52
2018-05-25T10:08:56.925Z,26.7
2018-05-25T10:10:18.739Z,26.87
2018-05-25T10:11:40.790Z,26.94
2018-05-25T10:13:02.848Z,27.07
2018-05-25T10:14:24.889Z,26.89
2018-05-25T10:15:46.703Z,26.51
2018-05-25T10:17:08.769Z,26.52
2018-05-25T10:18:30.564Z,26.55
2018-05-25T10:19:52.118Z,26.76
2018-05-25T10:21:14.174Z,26.89
2018-05-25T10:22:35.980Z,27.09
2018-05-25T10:23:57.793Z,26.88
2018-05-25T10:25:19.842Z,26.8
2018-05-25T10:26:41.910Z,26.89
2018-05-25T10:28:03.474Z,26.85
2018-05-25T10:29:25.518Z,27.13
2018-05-25T10:30:47.584Z,27.29
2018-05-25T10:32:09.376Z,27.31
2018-05-25T10:33:31.420Z,27.27
2018-05-25T10:34:53.451Z,27.27
2018-05-25T10:36:15.612Z,27.39
2018-05-25T10:37:37.407Z,27.57
2018-05-25T10:38:59.466Z,27.66
2018-05-25T10:40:21.530Z,27.66
2018-05-25T10:41:43.326Z,27.59
2018-05-25T10:43:05.114Z,27.62
2018-05-25T10:44:27.168Z,27.29
2018-05-25T10:45:49.341Z,27.22
2018-05-25T10:47:11.387Z,27.21
2018-05-25T10:48:33.433Z,27.29
2018-05-25T10:49:55.653Z,27.59
2018-05-25T10:51:17.708Z,27.63
2018-05-25T10:52:39.491Z,27.63
2018-05-25T10:54:01.292Z,27.63
2018-05-25T10:55:23.343Z,27.6
2018-05-25T10:56:45.389Z,27.74
2018-05-25T10:58:07.451Z,27.66
2018-05-25T10:59:29.519Z,27.88
2018-05-25T11:00:51.584Z,27.74
2018-05-25T11:02:13.629Z,27.72
2018-05-25T11:03:35.157Z,27.66
2018-05-25T11:04:57.029Z,28.03
2018-05-25T11:06:19.082Z,28.03
2018-05-25T11:07:41.164Z,28.03
2018-05-25T11:09:03.259Z,28.17
2018-05-25T11:10:25.335Z,27.92
2018-05-25T11:11:47.436Z,28
2018-05-25T11:13:09.490Z,27.93
2018-05-25T11:14:31.288Z,27.62
2018-05-25T11:15:52.552Z,27.44
2018-05-25T11:17:14.619Z,27.31
2018-05-25T11:18:36.393Z,27.47
2018-05-25T11:19:58.449Z,27.47
2018-05-25T11:21:20.492Z,27.59
2018-05-25T11:22:41.758Z,27.94
2018-05-25T11:24:03.812Z,28.21
2018-05-25T11:25:25.876Z,28.31
2018-05-25T11:26:47.956Z,28.11
2018-05-25T11:28:09.776Z,28.12
2018-05-25T11:29:31.833Z,28.33
2018-05-25T11:30:53.879Z,28.52
2018-05-25T11:32:15.969Z,28.66
2018-05-25T11:33:38.067Z,28.49
2018-05-25T11:34:59.334Z,28.24
2018-05-25T11:36:21.400Z,27.93
2018-05-25T11:37:43.448Z,27.72
2018-05-25T11:39:05.518Z,27.79
2018-05-25T11:40:27.332Z,27.63
2018-05-25T11:41:49.388Z,27.36
2018-05-25T11:43:11.459Z,27.24
2018-05-25T11:44:33.527Z,27.46
2018-05-25T11:45:55.339Z,27.59
2018-05-25T11:47:17.168Z,27.66
2018-05-25T11:48:38.965Z,27.66
2018-05-25T11:50:01.061Z,27.62
2018-05-25T11:51:23.166Z,27.4
2018-05-25T11:52:45.233Z,27.49
2018-05-25T11:54:07.035Z,27.5
2018-05-25T11:55:29.110Z,27.28
2018-05-25T11:56:51.190Z,27.51
2018-05-25T11:58:13.275Z,27.47
2018-05-25T11:59:35.340Z,27.74
2018-05-25T12:00:57.394Z,28
2018-05-25T12:02:19.221Z,28.11
2018-05-25T12:03:41.289Z,27.99
2018-05-25T12:05:03.326Z,28.07
2018-05-25T12:06:25.161Z,28.09
2018-05-25T12:07:47.374Z,28.09
2018-05-25T12:09:09.187Z,28.04
2018-05-25T12:10:31.251Z,28.03
2018-05-25T12:11:53.325Z,28.19
2018-05-25T12:13:15.115Z,28.18
2018-05-25T12:14:37.176Z,28.25
2018-05-25T12:15:58.981Z,28.19
2018-05-25T12:17:21.057Z,28.17
2018-05-25T12:18:42.858Z,28.06
2018-05-25T12:20:04.920Z,28.06
2018-05-25T12:21:26.456Z,28.07
2018-05-25T12:22:48.517Z,28.22
2018-05-25T12:24:10.592Z,28.12
2018-05-25T12:25:32.403Z,27.92
2018-05-25T12:26:54.465Z,27.81
2018-05-25T12:28:16.329Z,27.77
2018-05-25T12:29:38.396Z,27.81
2018-05-25T12:31:00.192Z,28.02
2018-05-25T12:32:22.258Z,28.11
2018-05-25T12:33:44.328Z,28.09
2018-05-25T12:35:06.396Z,28.07
2018-05-25T12:36:28.441Z,28.03
2018-05-25T12:37:50.502Z,28.03
2018-05-25T12:39:12.553Z,28.06
2018-05-25T12:40:34.704Z,28.07
2018-05-25T12:41:56.780Z,27.94
2018-05-25T12:43:18.852Z,27.94
2018-05-25T12:44:40.953Z,27.96
2018-05-25T12:46:03.013Z,28.07
2018-05-25T12:47:25.077Z,28.18
2018-05-25T12:48:47.127Z,28.15
2018-05-25T12:50:09.181Z,28.31
2018-05-25T12:51:30.996Z,28.41
2018-05-25T12:52:52.788Z,28.44
2018-05-25T12:54:14.857Z,28.46
2018-05-25T12:55:36.935Z,28.52
2018-05-25T12:56:58.758Z,28.44
2018-05-25T12:58:20.578Z,28.27
2018-05-25T12:59:42.649Z,28.44
2018-05-25T13:01:04.202Z,28.44
2018-05-25T13:02:26.262Z,28.4
2018-05-25T13:03:48.316Z,28.55
2018-05-25T13:05:10.126Z,28.61
2018-05-25T13:06:32.201Z,28.41
2018-05-25T13:07:54.270Z,28.46
2018-05-25T13:09:16.350Z,28.61
2018-05-25T13:10:38.164Z,28.61
2018-05-25T13:12:00.220Z,28.39
2018-05-25T13:13:22.023Z,28.34
2018-05-25T13:14:44.084Z,28.3
2018-05-25T13:16:06.164Z,28.18
2018-05-25T13:17:27.703Z,28.33
2018-05-25T13:18:49.530Z,28.34
2018-05-25T13:20:11.616Z,28.09
2018-05-25T13:21:33.661Z,28.14
2018-05-25T13:22:55.349Z,28.34
2018-05-25T13:24:16.880Z,28.43
2018-05-25T13:25:38.959Z,28.66
2018-05-25T13:27:01.027Z,28.76
2018-05-25T13:28:22.836Z,28.89
2018-05-25T13:29:44.896Z,28.73
2018-05-25T13:31:06.974Z,28.62
2018-05-25T13:32:29.030Z,28.76
2018-05-25T13:33:51.097Z,28.88
2018-05-25T13:35:13.163Z,28.98
2018-05-25T13:36:34.948Z,28.7
2018-05-25T13:37:56.468Z,28.58
2018-05-25T13:39:18.249Z,28.61
2018-05-25T13:40:40.041Z,28.66
2018-05-25T13:42:02.098Z,28.71
2018-05-25T13:43:23.917Z,28.66
2018-05-25T13:44:45.722Z,28.59
2018-05-25T13:46:07.533Z,28.76
2018-05-25T13:47:29.626Z,28.76
2018-05-25T13:48:51.424Z,28.77
2018-05-25T13:50:13.220Z,28.8
2018-05-25T13:51:35.018Z,28.89
2018-05-25T13:52:57.076Z,28.95
2018-05-25T13:54:19.153Z,28.9
2018-05-25T13:55:41.220Z,28.74
2018-05-25T13:57:03.294Z,28.68
2018-05-25T13:58:25.351Z,28.74
2018-05-25T13:59:47.616Z,28.64
2018-05-25T14:01:09.693Z,28.71
2018-05-25T14:02:31.525Z,28.58
2018-05-25T14:03:53.591Z,28.46
2018-05-25T14:05:15.407Z,28.24
2018-05-25T14:06:37.472Z,28.09
2018-05-25T14:07:59.276Z,28.03
2018-05-25T14:09:21.090Z,27.97
2018-05-25T14:10:42.878Z,27.77
2018-05-25T14:12:04.955Z,27.69
2018-05-25T14:13:26.771Z,27.94
2018-05-25T14:14:48.828Z,28.03
2018-05-25T14:16:10.645Z,28.18
2018-05-25T14:17:32.732Z,28.48
2018-05-25T14:18:54.532Z,28.61
2018-05-25T14:20:16.063Z,28.59
2018-05-25T14:21:38.146Z,28.51
2018-05-25T14:23:00.215Z,28.48
2018-05-25T14:24:22.018Z,28.66
2018-05-25T14:25:43.549Z,28.9
2018-05-25T14:27:05.616Z,28.95
2018-05-25T14:28:27.700Z,28.67
2018-05-25T14:29:49.770Z,28.55
2018-05-25T14:31:11.831Z,28.58
2018-05-25T14:32:33.893Z,28.67
2018-05-25T14:33:55.698Z,28.77
2018-05-25T14:35:17.782Z,29.02
2018-05-25T14:36:39.577Z,29.21
2018-05-25T14:38:01.361Z,29.53
2018-05-25T14:39:23.433Z,29.73
2018-05-25T14:40:44.702Z,29.86
2018-05-25T14:42:06.492Z,29.57
2018-05-25T14:43:28.310Z,29.64
2018-05-25T14:44:50.111Z,29.65
2018-05-25T14:46:12.195Z,29.52
2018-05-25T14:47:34.268Z,29.28
2018-05-25T14:48:56.410Z,29.02
2018-05-25T14:50:17.960Z,29
2018-05-25T14:51:40.023Z,28.86
2018-05-25T14:53:01.833Z,29
2018-05-25T14:54:23.912Z,29
2018-05-25T14:55:45.968Z,29.15
2018-05-25T14:57:08.030Z,29.24
2018-05-25T14:58:29.834Z,29.3
2018-05-25T14:59:51.896Z,29.26
2018-05-25T15:01:13.974Z,29.24
2018-05-25T15:02:36.030Z,29.37
2018-05-25T15:03:58.104Z,29.28
2018-05-25T15:05:19.894Z,29.05
2018-05-25T15:06:42.095Z,28.9
2018-05-25T15:08:04.193Z,28.7
2018-05-25T15:09:26.000Z,28.54
2018-05-25T15:10:48.158Z,28.36
2018-05-25T15:12:10.223Z,28.19
2018-05-25T15:13:32.317Z,28.09
2018-05-25T15:14:54.093Z,28.03
2018-05-25T15:16:15.897Z,28.07
2018-05-25T15:17:37.960Z,27.97
2018-05-25T15:19:00.040Z,28.09
2018-05-25T15:20:22.115Z,28.02
2018-05-25T15:21:44.190Z,28.18
2018-05-25T15:23:06.247Z,28.36
2018-05-25T15:24:28.333Z,28.62
2018-05-25T15:25:50.406Z,28.89
2018-05-25T15:27:12.478Z,28.96
2018-05-25T15:28:34.276Z,29.09
2018-05-25T15:29:56.359Z,29.27
2018-05-25T15:31:18.717Z,28.95
2018-05-25T15:32:41.063Z,29.02
2018-05-25T15:34:03.227Z,29.15
2018-05-25T15:35:25.313Z,29.12
2018-05-25T15:36:47.371Z,29.02
2018-05-25T15:38:09.444Z,29.02
2018-05-25T15:39:31.497Z,28.9
2018-05-25T15:40:53.572Z,28.98
2018-05-25T15:42:15.385Z,29.02
2018-05-25T15:43:37.173Z,29.16
2018-05-25T15:44:59.252Z,29.08
2018-05-25T15:46:21.342Z,29.31
2018-05-25T15:47:43.476Z,29.49
2018-05-25T15:49:05.543Z,29.46
2018-05-25T15:50:27.604Z,29.31
2018-05-25T15:51:49.398Z,29.28
2018-05-25T15:53:11.233Z,29.24
2018-05-25T15:54:33.035Z,29.28
2018-05-25T15:55:54.825Z,29.3
2018-05-25T15:57:16.366Z,29.18
2018-05-25T15:58:38.496Z,29.28
2018-05-25T16:00:00.319Z,29.18
2018-05-25T16:01:22.402Z,29.02
2018-05-25T16:02:44.693Z,29
2018-05-25T16:04:06.774Z,28.98
2018-05-25T16:05:28.880Z,28.9
2018-05-25T16:06:50.708Z,29.05
2018-05-25T16:08:12.779Z,28.98
2018-05-25T16:09:34.857Z,28.98
2018-05-25T16:10:56.914Z,28.9
2018-05-25T16:12:18.997Z,28.89
2018-05-25T16:13:41.071Z,28.9
2018-05-25T16:15:03.146Z,28.9
2018-05-25T16:16:25.233Z,28.98
2018-05-25T16:17:47.014Z,29
2018-05-25T16:19:09.076Z,29.16
2018-05-25T16:20:30.873Z,28.96
2018-05-25T16:21:52.935Z,29.06
2018-05-25T16:23:15.003Z,29.18
2018-05-25T16:24:37.095Z,29.14
2018-05-25T16:25:59.161Z,29.16
2018-05-25T16:27:21.213Z,29.31
2018-05-25T16:28:43.342Z,29.39
2018-05-25T16:30:05.269Z,29.71
2018-05-25T16:31:27.341Z,29.8
2018-05-25T16:32:49.185Z,29.87
2018-05-25T16:34:10.781Z,29.94
2018-05-25T16:35:32.905Z,29.8
2018-05-25T16:36:55.015Z,29.61
2018-05-25T16:38:17.083Z,29.61
2018-05-25T16:39:39.164Z,29.78
2018-05-25T16:41:00.974Z,29.82
2018-05-25T16:42:23.053Z,29.95
2018-05-25T16:43:44.885Z,29.79
2018-05-25T16:45:06.733Z,29.71
2018-05-25T16:46:29.064Z,29.31
2018-05-25T16:47:50.967Z,28.9
2018-05-25T16:49:13.035Z,28.7
2018-05-25T16:50:34.812Z,28.37
2018-05-25T16:51:57.869Z,27.94
2018-05-25T16:53:20.928Z,27.78
2018-05-25T16:54:42.750Z,27.5
2018-05-25T16:56:04.615Z,27.25
2018-05-25T16:57:26.490Z,27.13
2018-05-25T16:58:48.594Z,27.24
2018-05-25T17:00:10.479Z,27.19
2018-05-25T17:01:32.037Z,27.22
2018-05-25T17:02:53.839Z,27.14
2018-05-25T17:04:15.980Z,27.07
2018-05-25T17:05:38.037Z,26.87
2018-05-25T17:06:59.841Z,26.77
2018-05-25T17:08:21.917Z,26.6
2018-05-25T17:09:43.972Z,26.69
2018-05-25T17:11:06.096Z,26.45
2018-05-25T17:12:28.194Z,26.33
2018-05-25T17:13:50.149Z,26.28
2018-05-25T17:15:11.973Z,26.18
2018-05-25T17:16:34.044Z,26.06
2018-05-25T17:17:55.853Z,25.92
2018-05-25T17:19:17.911Z,25.92
2018-05-25T17:20:39.719Z,25.88
2018-05-25T17:22:01.796Z,25.77
2018-05-25T17:23:23.599Z,25.83
2018-05-25T17:24:45.653Z,25.75
2018-05-25T17:26:07.445Z,25.67
2018-05-25T17:27:28.988Z,25.58
2018-05-25T17:28:51.057Z,25.64
2018-05-25T17:30:12.877Z,25.54
2018-05-25T17:31:34.990Z,25.55
2018-05-25T17:32:57.054Z,25.58
2018-05-25T17:34:19.131Z,25.47
2018-05-25T17:35:41.189Z,25.43
2018-05-25T17:37:03.278Z,25.47
2018-05-25T17:38:25.328Z,25.36
2018-05-25T17:39:47.398Z,25.36
2018-05-25T17:41:09.200Z,25.33